sensor_id;sensor_type;location;lat;lon;timestamp;P1;durP1;ratioP1;P2;durP2;ratioP2
15712;SDS011;7957;51.608;6.916;2023-02-18T00:01:14;28.27;;;25.67;;
15712;SDS011;7957;51.608;6.916;2023-02-18T00:03:43;29.00;;;26.33;;
15712;SDS011;7957;51.608;6.916;2023-02-18T00:06:10;29.47;;;26.67;;
15712;SDS011;7957;51.608;6.916;2023-02-18T00:08:39;30.63;;;27.70;;
15712;SDS011;7957;51.608;6.916;2023-02-18T00:11:06;29.97;;;27.17;;
15712;SDS011;7957;51.608;6.916;2023-02-18T00:13:34;28.90;;;26.17;;
15712;SDS011;7957;51.608;6.916;2023-02-18T00:16:01;29.43;;;26.63;;
15712;SDS011;7957;51.608;6.916;2023-02-18T00:18:30;30.87;;;27.87;;
15712;SDS011;7957;51.608;6.916;2023-02-18T00:20:57;30.07;;;27.33;;
15712;SDS011;7957;51.608;6.916;2023-02-18T00:23:24;30.73;;;27.93;;
15712;SDS011;7957;51.608;6.916;2023-02-18T00:25:57;29.50;;;26.70;;
15712;SDS011;7957;51.608;6.916;2023-02-18T00:28:25;29.63;;;26.73;;
15712;SDS011;7957;51.608;6.916;2023-02-18T00:30:52;29.97;;;26.97;;
15712;SDS011;7957;51.608;6.916;2023-02-18T00:33:19;31.03;;;28.10;;
15712;SDS011;7957;51.608;6.916;2023-02-18T00:35:48;30.10;;;27.30;;
15712;SDS011;7957;51.608;6.916;2023-02-18T00:38:15;30.67;;;27.63;;
15712;SDS011;7957;51.608;6.916;2023-02-18T00:40:42;31.07;;;28.17;;
15712;SDS011;7957;51.608;6.916;2023-02-18T00:43:09;31.73;;;28.73;;
15712;SDS011;7957;51.608;6.916;2023-02-18T00:45:36;30.90;;;27.80;;
15712;SDS011;7957;51.608;6.916;2023-02-18T00:48:02;29.60;;;26.73;;
15712;SDS011;7957;51.608;6.916;2023-02-18T00:50:30;31.73;;;28.73;;
15712;SDS011;7957;51.608;6.916;2023-02-18T00:52:58;29.73;;;26.97;;
15712;SDS011;7957;51.608;6.916;2023-02-18T00:55:25;32.07;;;28.97;;
15712;SDS011;7957;51.608;6.916;2023-02-18T00:57:52;30.20;;;27.30;;
15712;SDS011;7957;51.608;6.916;2023-02-18T01:00:19;32.93;;;29.83;;
15712;SDS011;7957;51.608;6.916;2023-02-18T01:02:46;32.23;;;29.13;;
15712;SDS011;7957;51.608;6.916;2023-02-18T01:05:17;29.67;;;26.77;;
15712;SDS011;7957;51.608;6.916;2023-02-18T01:07:44;30.87;;;27.77;;
15712;SDS011;7957;51.608;6.916;2023-02-18T01:10:13;31.63;;;28.60;;
15712;SDS011;7957;51.608;6.916;2023-02-18T01:12:40;31.30;;;28.20;;
15712;SDS011;7957;51.608;6.916;2023-02-18T01:15:07;31.57;;;28.47;;
15712;SDS011;7957;51.608;6.916;2023-02-18T01:17:35;31.40;;;28.20;;
15712;SDS011;7957;51.608;6.916;2023-02-18T01:20:02;31.57;;;28.40;;
15712;SDS011;7957;51.608;6.916;2023-02-18T01:22:29;31.40;;;28.23;;
15712;SDS011;7957;51.608;6.916;2023-02-18T01:24:56;31.70;;;28.53;;
15712;SDS011;7957;51.608;6.916;2023-02-18T01:27:24;31.90;;;28.70;;
15712;SDS011;7957;51.608;6.916;2023-02-18T01:29:51;31.87;;;28.87;;
15712;SDS011;7957;51.608;6.916;2023-02-18T01:32:21;30.47;;;27.37;;
15712;SDS011;7957;51.608;6.916;2023-02-18T01:34:48;32.17;;;28.97;;
15712;SDS011;7957;51.608;6.916;2023-02-18T01:37:15;31.90;;;28.73;;
15712;SDS011;7957;51.608;6.916;2023-02-18T01:39:42;33.10;;;29.80;;
15712;SDS011;7957;51.608;6.916;2023-02-18T01:42:14;31.47;;;28.37;;
15712;SDS011;7957;51.608;6.916;2023-02-18T01:44:46;30.53;;;27.57;;
15712;SDS011;7957;51.608;6.916;2023-02-18T01:47:13;33.00;;;29.70;;
15712;SDS011;7957;51.608;6.916;2023-02-18T01:49:40;32.07;;;28.87;;
15712;SDS011;7957;51.608;6.916;2023-02-18T01:52:09;32.93;;;29.63;;
15712;SDS011;7957;51.608;6.916;2023-02-18T01:54:41;31.90;;;28.70;;
15712;SDS011;7957;51.608;6.916;2023-02-18T01:57:11;32.23;;;29.00;;
15712;SDS011;7957;51.608;6.916;2023-02-18T01:59:47;32.23;;;29.13;;
15712;SDS011;7957;51.608;6.916;2023-02-18T02:02:18;32.90;;;29.63;;
15712;SDS011;7957;51.608;6.916;2023-02-18T02:04:47;32.33;;;29.07;;
15712;SDS011;7957;51.608;6.916;2023-02-18T02:07:15;32.07;;;28.87;;
15712;SDS011;7957;51.608;6.916;2023-02-18T02:09:45;33.53;;;29.53;;
15712;SDS011;7957;51.608;6.916;2023-02-18T02:12:20;32.83;;;29.50;;
15712;SDS011;7957;51.608;6.916;2023-02-18T02:18:01;31.67;;;28.47;;
15712;SDS011;7957;51.608;6.916;2023-02-18T02:29:29;31.67;;;28.33;;
15712;SDS011;7957;51.608;6.916;2023-02-18T02:32:22;28.83;;;26.03;;
15712;SDS011;7957;51.608;6.916;2023-02-18T02:35:12;30.43;;;27.43;;
15712;SDS011;7957;51.608;6.916;2023-02-18T02:37:45;30.30;;;27.30;;
15712;SDS011;7957;51.608;6.916;2023-02-18T02:40:20;30.17;;;27.03;;
15712;SDS011;7957;51.608;6.916;2023-02-18T02:42:57;30.17;;;27.03;;
15712;SDS011;7957;51.608;6.916;2023-02-18T02:45:34;30.37;;;27.27;;
15712;SDS011;7957;51.608;6.916;2023-02-18T02:48:10;28.97;;;26.00;;
15712;SDS011;7957;51.608;6.916;2023-02-18T02:50:47;30.03;;;26.93;;
15712;SDS011;7957;51.608;6.916;2023-02-18T02:53:20;29.03;;;25.90;;
15712;SDS011;7957;51.608;6.916;2023-02-18T02:55:50;27.83;;;25.03;;
15712;SDS011;7957;51.608;6.916;2023-02-18T02:58:19;27.87;;;25.17;;
15712;SDS011;7957;51.608;6.916;2023-02-18T03:00:49;26.63;;;24.03;;
15712;SDS011;7957;51.608;6.916;2023-02-18T03:03:46;27.53;;;24.73;;
15712;SDS011;7957;51.608;6.916;2023-02-18T03:06:37;26.90;;;24.23;;
15712;SDS011;7957;51.608;6.916;2023-02-18T03:09:14;26.77;;;24.10;;
15712;SDS011;7957;51.608;6.916;2023-02-18T03:11:55;24.80;;;22.40;;
15712;SDS011;7957;51.608;6.916;2023-02-18T03:14:27;24.50;;;22.10;;
15712;SDS011;7957;51.608;6.916;2023-02-18T03:17:01;23.33;;;21.13;;
15712;SDS011;7957;51.608;6.916;2023-02-18T03:19:34;22.60;;;20.43;;
15712;SDS011;7957;51.608;6.916;2023-02-18T03:22:06;22.03;;;19.93;;
15712;SDS011;7957;51.608;6.916;2023-02-18T03:24:38;23.00;;;20.87;;
15712;SDS011;7957;51.608;6.916;2023-02-18T03:27:08;22.60;;;20.50;;
15712;SDS011;7957;51.608;6.916;2023-02-18T03:29:39;20.87;;;18.97;;
15712;SDS011;7957;51.608;6.916;2023-02-18T03:32:09;21.27;;;19.30;;
15712;SDS011;7957;51.608;6.916;2023-02-18T03:34:40;20.43;;;18.53;;
15712;SDS011;7957;51.608;6.916;2023-02-18T03:37:12;18.77;;;17.07;;
15712;SDS011;7957;51.608;6.916;2023-02-18T03:39:40;19.30;;;17.60;;
15712;SDS011;7957;51.608;6.916;2023-02-18T03:42:09;19.53;;;17.73;;
15712;SDS011;7957;51.608;6.916;2023-02-18T03:44:37;18.50;;;16.90;;
15712;SDS011;7957;51.608;6.916;2023-02-18T03:47:04;17.87;;;16.23;;
15712;SDS011;7957;51.608;6.916;2023-02-18T03:49:31;18.17;;;16.27;;
15712;SDS011;7957;51.608;6.916;2023-02-18T03:51:58;17.80;;;16.10;;
15712;SDS011;7957;51.608;6.916;2023-02-18T03:54:26;17.20;;;15.60;;
15712;SDS011;7957;51.608;6.916;2023-02-18T03:56:53;18.13;;;16.43;;
15712;SDS011;7957;51.608;6.916;2023-02-18T03:59:20;17.33;;;15.63;;
15712;SDS011;7957;51.608;6.916;2023-02-18T04:01:47;16.23;;;14.73;;
15712;SDS011;7957;51.608;6.916;2023-02-18T04:04:14;16.17;;;14.77;;
15712;SDS011;7957;51.608;6.916;2023-02-18T04:06:41;17.40;;;15.77;;
15712;SDS011;7957;51.608;6.916;2023-02-18T04:09:07;16.47;;;14.87;;
15712;SDS011;7957;51.608;6.916;2023-02-18T04:11:37;17.37;;;15.77;;
15712;SDS011;7957;51.608;6.916;2023-02-18T04:14:06;16.67;;;15.07;;
15712;SDS011;7957;51.608;6.916;2023-02-18T04:16:34;17.30;;;15.67;;
15712;SDS011;7957;51.608;6.916;2023-02-18T04:19:01;19.07;;;17.17;;
15712;SDS011;7957;51.608;6.916;2023-02-18T04:21:28;17.63;;;15.93;;
15712;SDS011;7957;51.608;6.916;2023-02-18T04:23:54;18.23;;;16.50;;
15712;SDS011;7957;51.608;6.916;2023-02-18T04:26:21;18.20;;;16.40;;
15712;SDS011;7957;51.608;6.916;2023-02-18T04:28:52;18.67;;;16.97;;
15712;SDS011;7957;51.608;6.916;2023-02-18T04:31:19;18.63;;;16.83;;
15712;SDS011;7957;51.608;6.916;2023-02-18T04:33:46;18.77;;;17.00;;
15712;SDS011;7957;51.608;6.916;2023-02-18T04:36:13;17.73;;;16.03;;
15712;SDS011;7957;51.608;6.916;2023-02-18T04:38:40;18.97;;;17.17;;
15712;SDS011;7957;51.608;6.916;2023-02-18T04:41:07;16.37;;;14.77;;
15712;SDS011;7957;51.608;6.916;2023-02-18T04:43:34;17.67;;;15.97;;
15712;SDS011;7957;51.608;6.916;2023-02-18T04:46:03;16.30;;;14.90;;
15712;SDS011;7957;51.608;6.916;2023-02-18T04:48:30;17.43;;;15.73;;
15712;SDS011;7957;51.608;6.916;2023-02-18T04:50:59;15.50;;;14.00;;
15712;SDS011;7957;51.608;6.916;2023-02-18T04:53:25;16.17;;;14.67;;
15712;SDS011;7957;51.608;6.916;2023-02-18T04:55:53;16.67;;;15.10;;
15712;SDS011;7957;51.608;6.916;2023-02-18T04:58:20;15.83;;;14.33;;
15712;SDS011;7957;51.608;6.916;2023-02-18T05:00:47;14.93;;;13.53;;
15712;SDS011;7957;51.608;6.916;2023-02-18T05:03:15;15.10;;;13.60;;
15712;SDS011;7957;51.608;6.916;2023-02-18T05:05:42;13.33;;;12.13;;
15712;SDS011;7957;51.608;6.916;2023-02-18T05:08:09;14.37;;;13.07;;
15712;SDS011;7957;51.608;6.916;2023-02-18T05:10:36;12.97;;;11.77;;
15712;SDS011;7957;51.608;6.916;2023-02-18T05:13:03;12.97;;;11.80;;
15712;SDS011;7957;51.608;6.916;2023-02-18T05:15:30;11.10;;;10.00;;
15712;SDS011;7957;51.608;6.916;2023-02-18T05:17:57;10.77;;;9.87;;
15712;SDS011;7957;51.608;6.916;2023-02-18T05:20:26;10.87;;;9.97;;
15712;SDS011;7957;51.608;6.916;2023-02-18T05:22:53;10.00;;;9.10;;
15712;SDS011;7957;51.608;6.916;2023-02-18T05:25:20;8.43;;;7.73;;
15712;SDS011;7957;51.608;6.916;2023-02-18T05:27:47;8.77;;;7.97;;
15712;SDS011;7957;51.608;6.916;2023-02-18T05:30:14;8.67;;;7.97;;
15712;SDS011;7957;51.608;6.916;2023-02-18T05:32:41;8.60;;;7.80;;
15712;SDS011;7957;51.608;6.916;2023-02-18T05:35:08;7.07;;;6.47;;
15712;SDS011;7957;51.608;6.916;2023-02-18T05:37:36;7.77;;;7.17;;
15712;SDS011;7957;51.608;6.916;2023-02-18T05:40:04;6.97;;;6.37;;
15712;SDS011;7957;51.608;6.916;2023-02-18T05:42:31;6.33;;;5.83;;
15712;SDS011;7957;51.608;6.916;2023-02-18T05:44:58;5.60;;;5.20;;
15712;SDS011;7957;51.608;6.916;2023-02-18T05:47:25;5.43;;;5.03;;
15712;SDS011;7957;51.608;6.916;2023-02-18T05:49:52;5.70;;;5.20;;
15712;SDS011;7957;51.608;6.916;2023-02-18T05:52:20;5.50;;;5.07;;
15712;SDS011;7957;51.608;6.916;2023-02-18T05:54:48;4.33;;;4.03;;
15712;SDS011;7957;51.608;6.916;2023-02-18T05:57:15;4.90;;;4.50;;
15712;SDS011;7957;51.608;6.916;2023-02-18T05:59:42;5.00;;;4.60;;
15712;SDS011;7957;51.608;6.916;2023-02-18T06:02:09;4.30;;;4.00;;
15712;SDS011;7957;51.608;6.916;2023-02-18T06:04:36;4.47;;;4.10;;
15712;SDS011;7957;51.608;6.916;2023-02-18T06:07:04;4.40;;;4.00;;
15712;SDS011;7957;51.608;6.916;2023-02-18T06:09:31;4.00;;;3.70;;
15712;SDS011;7957;51.608;6.916;2023-02-18T06:11:59;4.20;;;3.90;;
15712;SDS011;7957;51.608;6.916;2023-02-18T06:14:26;3.67;;;3.37;;
15712;SDS011;7957;51.608;6.916;2023-02-18T06:17:06;3.63;;;3.33;;
15712;SDS011;7957;51.608;6.916;2023-02-18T06:19:33;3.77;;;3.47;;
15712;SDS011;7957;51.608;6.916;2023-02-18T06:22:00;3.90;;;3.60;;
15712;SDS011;7957;51.608;6.916;2023-02-18T06:24:27;3.50;;;3.20;;
15712;SDS011;7957;51.608;6.916;2023-02-18T06:26:53;3.43;;;3.13;;
15712;SDS011;7957;51.608;6.916;2023-02-18T06:29:22;3.60;;;3.30;;
15712;SDS011;7957;51.608;6.916;2023-02-18T06:31:49;2.93;;;2.73;;
15712;SDS011;7957;51.608;6.916;2023-02-18T06:34:16;3.23;;;2.93;;
15712;SDS011;7957;51.608;6.916;2023-02-18T06:36:43;3.33;;;3.03;;
15712;SDS011;7957;51.608;6.916;2023-02-18T06:39:10;3.50;;;3.20;;
15712;SDS011;7957;51.608;6.916;2023-02-18T06:41:37;3.27;;;2.97;;
15712;SDS011;7957;51.608;6.916;2023-02-18T06:44:04;4.10;;;3.70;;
15712;SDS011;7957;51.608;6.916;2023-02-18T06:46:33;3.73;;;3.43;;
15712;SDS011;7957;51.608;6.916;2023-02-18T06:49:00;4.07;;;3.77;;
15712;SDS011;7957;51.608;6.916;2023-02-18T06:51:27;3.70;;;3.40;;
15712;SDS011;7957;51.608;6.916;2023-02-18T06:53:54;4.10;;;3.80;;
15712;SDS011;7957;51.608;6.916;2023-02-18T06:56:20;4.03;;;3.73;;
15712;SDS011;7957;51.608;6.916;2023-02-18T06:58:47;3.90;;;3.60;;
15712;SDS011;7957;51.608;6.916;2023-02-18T07:01:14;4.00;;;3.70;;
15712;SDS011;7957;51.608;6.916;2023-02-18T07:03:43;4.20;;;3.90;;
15712;SDS011;7957;51.608;6.916;2023-02-18T07:06:09;4.23;;;3.87;;
15712;SDS011;7957;51.608;6.916;2023-02-18T07:08:36;4.20;;;3.73;;
15712;SDS011;7957;51.608;6.916;2023-02-18T07:11:03;4.10;;;3.70;;
15712;SDS011;7957;51.608;6.916;2023-02-18T07:13:30;3.53;;;3.23;;
15712;SDS011;7957;51.608;6.916;2023-02-18T07:15:57;3.80;;;3.50;;
15712;SDS011;7957;51.608;6.916;2023-02-18T07:18:24;3.33;;;3.13;;
15712;SDS011;7957;51.608;6.916;2023-02-18T07:20:53;3.90;;;3.60;;
15712;SDS011;7957;51.608;6.916;2023-02-18T07:23:20;3.27;;;3.07;;
15712;SDS011;7957;51.608;6.916;2023-02-18T07:25:47;3.63;;;3.33;;
15712;SDS011;7957;51.608;6.916;2023-02-18T07:28:14;3.60;;;3.37;;
15712;SDS011;7957;51.608;6.916;2023-02-18T07:30:41;3.07;;;2.87;;
15712;SDS011;7957;51.608;6.916;2023-02-18T07:33:07;3.50;;;3.20;;
15712;SDS011;7957;51.608;6.916;2023-02-18T07:35:34;3.40;;;3.10;;
15712;SDS011;7957;51.608;6.916;2023-02-18T07:38:03;3.30;;;3.10;;
15712;SDS011;7957;51.608;6.916;2023-02-18T07:40:30;3.27;;;3.00;;
15712;SDS011;7957;51.608;6.916;2023-02-18T07:42:56;3.00;;;2.80;;
15712;SDS011;7957;51.608;6.916;2023-02-18T07:45:24;2.80;;;2.60;;
15712;SDS011;7957;51.608;6.916;2023-02-18T07:47:51;3.07;;;2.87;;
15712;SDS011;7957;51.608;6.916;2023-02-18T07:50:18;3.00;;;2.80;;
15712;SDS011;7957;51.608;6.916;2023-02-18T07:52:45;3.07;;;2.77;;
15712;SDS011;7957;51.608;6.916;2023-02-18T07:55:13;2.87;;;2.67;;
15712;SDS011;7957;51.608;6.916;2023-02-18T07:57:40;2.80;;;2.60;;
15712;SDS011;7957;51.608;6.916;2023-02-18T08:00:21;3.10;;;2.90;;
15712;SDS011;7957;51.608;6.916;2023-02-18T08:02:48;3.00;;;2.80;;
15712;SDS011;7957;51.608;6.916;2023-02-18T08:05:15;2.97;;;2.77;;
15712;SDS011;7957;51.608;6.916;2023-02-18T08:07:42;2.93;;;2.70;;
15712;SDS011;7957;51.608;6.916;2023-02-18T08:10:09;3.43;;;3.10;;
15712;SDS011;7957;51.608;6.916;2023-02-18T08:12:37;3.30;;;3.10;;
15712;SDS011;7957;51.608;6.916;2023-02-18T08:15:04;3.30;;;3.07;;
15712;SDS011;7957;51.608;6.916;2023-02-18T08:17:31;3.57;;;3.27;;
15712;SDS011;7957;51.608;6.916;2023-02-18T08:19:58;3.30;;;3.00;;
15712;SDS011;7957;51.608;6.916;2023-02-18T08:22:25;3.77;;;3.47;;
15712;SDS011;7957;51.608;6.916;2023-02-18T08:24:52;3.33;;;3.03;;
15712;SDS011;7957;51.608;6.916;2023-02-18T08:27:20;3.80;;;3.33;;
15712;SDS011;7957;51.608;6.916;2023-02-18T08:29:48;3.13;;;2.90;;
15712;SDS011;7957;51.608;6.916;2023-02-18T08:32:16;3.30;;;3.00;;
15712;SDS011;7957;51.608;6.916;2023-02-18T08:34:42;3.83;;;3.10;;
15712;SDS011;7957;51.608;6.916;2023-02-18T08:37:09;3.50;;;3.20;;
15712;SDS011;7957;51.608;6.916;2023-02-18T08:39:36;3.73;;;3.37;;
15712;SDS011;7957;51.608;6.916;2023-02-18T08:42:04;4.27;;;3.20;;
15712;SDS011;7957;51.608;6.916;2023-02-18T08:44:31;3.40;;;3.10;;
15712;SDS011;7957;51.608;6.916;2023-02-18T08:46:59;3.43;;;3.13;;
15712;SDS011;7957;51.608;6.916;2023-02-18T08:49:26;3.40;;;3.10;;
15712;SDS011;7957;51.608;6.916;2023-02-18T08:51:53;3.87;;;2.90;;
15712;SDS011;7957;51.608;6.916;2023-02-18T08:54:20;6.20;;;3.70;;
15712;SDS011;7957;51.608;6.916;2023-02-18T08:56:47;3.60;;;3.30;;
15712;SDS011;7957;51.608;6.916;2023-02-18T08:59:13;3.43;;;3.10;;
15712;SDS011;7957;51.608;6.916;2023-02-18T09:01:40;4.23;;;3.83;;
15712;SDS011;7957;51.608;6.916;2023-02-18T09:04:09;4.57;;;3.90;;
15712;SDS011;7957;51.608;6.916;2023-02-18T09:06:36;4.83;;;3.90;;
15712;SDS011;7957;51.608;6.916;2023-02-18T09:09:03;6.20;;;5.00;;
15712;SDS011;7957;51.608;6.916;2023-02-18T09:11:30;7.07;;;4.97;;
15712;SDS011;7957;51.608;6.916;2023-02-18T09:13:57;10.83;;;6.37;;
15712;SDS011;7957;51.608;6.916;2023-02-18T09:16:24;16.17;;;7.60;;
15712;SDS011;7957;51.608;6.916;2023-02-18T09:18:52;14.40;;;7.63;;
15712;SDS011;7957;51.608;6.916;2023-02-18T09:21:21;9.73;;;6.40;;
15712;SDS011;7957;51.608;6.916;2023-02-18T09:23:49;11.43;;;6.10;;
15712;SDS011;7957;51.608;6.916;2023-02-18T09:26:18;13.00;;;6.07;;
15712;SDS011;7957;51.608;6.916;2023-02-18T09:28:47;11.73;;;6.47;;
15712;SDS011;7957;51.608;6.916;2023-02-18T09:31:15;13.17;;;6.13;;
15712;SDS011;7957;51.608;6.916;2023-02-18T09:33:44;13.87;;;6.60;;
15712;SDS011;7957;51.608;6.916;2023-02-18T09:36:12;13.47;;;6.43;;
15712;SDS011;7957;51.608;6.916;2023-02-18T09:38:40;13.73;;;6.43;;
15712;SDS011;7957;51.608;6.916;2023-02-18T09:41:07;13.60;;;6.03;;
15712;SDS011;7957;51.608;6.916;2023-02-18T09:43:41;15.77;;;7.67;;
15712;SDS011;7957;51.608;6.916;2023-02-18T09:46:12;14.83;;;7.43;;
15712;SDS011;7957;51.608;6.916;2023-02-18T09:48:44;22.33;;;8.13;;
15712;SDS011;7957;51.608;6.916;2023-02-18T09:51:13;17.27;;;8.10;;
15712;SDS011;7957;51.608;6.916;2023-02-18T09:53:41;18.63;;;7.70;;
15712;SDS011;7957;51.608;6.916;2023-02-18T09:56:10;16.67;;;7.77;;
15712;SDS011;7957;51.608;6.916;2023-02-18T09:58:39;16.60;;;7.37;;
15712;SDS011;7957;51.608;6.916;2023-02-18T10:01:10;19.40;;;7.53;;
15712;SDS011;7957;51.608;6.916;2023-02-18T10:03:42;19.27;;;7.97;;
15712;SDS011;7957;51.608;6.916;2023-02-18T10:06:10;18.10;;;7.90;;
15712;SDS011;7957;51.608;6.916;2023-02-18T10:08:43;18.17;;;9.00;;
15712;SDS011;7957;51.608;6.916;2023-02-18T10:11:12;16.30;;;8.53;;
15712;SDS011;7957;51.608;6.916;2023-02-18T10:13:42;19.40;;;9.00;;
15712;SDS011;7957;51.608;6.916;2023-02-18T10:16:13;19.53;;;7.63;;
15712;SDS011;7957;51.608;6.916;2023-02-18T10:18:43;23.47;;;8.70;;
15712;SDS011;7957;51.608;6.916;2023-02-18T10:21:14;14.37;;;7.53;;
15712;SDS011;7957;51.608;6.916;2023-02-18T10:23:46;17.83;;;8.40;;
15712;SDS011;7957;51.608;6.916;2023-02-18T10:26:19;18.23;;;7.97;;
15712;SDS011;7957;51.608;6.916;2023-02-18T10:28:47;14.10;;;6.73;;
15712;SDS011;7957;51.608;6.916;2023-02-18T10:31:17;17.10;;;7.17;;
15712;SDS011;7957;51.608;6.916;2023-02-18T10:33:51;17.87;;;7.03;;
15712;SDS011;7957;51.608;6.916;2023-02-18T10:36:23;16.23;;;6.13;;
15712;SDS011;7957;51.608;6.916;2023-02-18T10:39:04;18.87;;;6.83;;
15712;SDS011;7957;51.608;6.916;2023-02-18T10:41:48;17.77;;;6.53;;
15712;SDS011;7957;51.608;6.916;2023-02-18T10:44:23;16.37;;;7.20;;
15712;SDS011;7957;51.608;6.916;2023-02-18T10:46:58;15.93;;;6.43;;
15712;SDS011;7957;51.608;6.916;2023-02-18T10:49:39;17.60;;;6.70;;
15712;SDS011;7957;51.608;6.916;2023-02-18T10:52:20;12.93;;;6.37;;
15712;SDS011;7957;51.608;6.916;2023-02-18T10:54:49;12.80;;;6.47;;
15712;SDS011;7957;51.608;6.916;2023-02-18T10:57:19;13.60;;;6.70;;
15712;SDS011;7957;51.608;6.916;2023-02-18T10:59:56;15.63;;;6.20;;
15712;SDS011;7957;51.608;6.916;2023-02-18T11:02:26;13.80;;;6.50;;
15712;SDS011;7957;51.608;6.916;2023-02-18T11:04:55;16.87;;;6.90;;
15712;SDS011;7957;51.608;6.916;2023-02-18T11:07:25;15.70;;;6.90;;
15712;SDS011;7957;51.608;6.916;2023-02-18T11:09:58;13.07;;;6.03;;
15712;SDS011;7957;51.608;6.916;2023-02-18T11:12:28;14.13;;;6.53;;
15712;SDS011;7957;51.608;6.916;2023-02-18T11:15:05;13.03;;;6.67;;
15712;SDS011;7957;51.608;6.916;2023-02-18T11:17:41;13.20;;;6.43;;
15712;SDS011;7957;51.608;6.916;2023-02-18T11:20:19;13.50;;;7.07;;
15712;SDS011;7957;51.608;6.916;2023-02-18T11:22:59;13.03;;;6.70;;
15712;SDS011;7957;51.608;6.916;2023-02-18T11:25:51;19.30;;;7.67;;
15712;SDS011;7957;51.608;6.916;2023-02-18T11:28:28;16.40;;;7.30;;
15712;SDS011;7957;51.608;6.916;2023-02-18T11:31:16;13.97;;;7.20;;
15712;SDS011;7957;51.608;6.916;2023-02-18T11:33:47;16.23;;;6.77;;
15712;SDS011;7957;51.608;6.916;2023-02-18T11:36:18;13.27;;;6.70;;
15712;SDS011;7957;51.608;6.916;2023-02-18T11:38:49;13.63;;;7.00;;
15712;SDS011;7957;51.608;6.916;2023-02-18T11:41:20;14.00;;;7.47;;
15712;SDS011;7957;51.608;6.916;2023-02-18T11:43:54;12.93;;;6.70;;
15712;SDS011;7957;51.608;6.916;2023-02-18T11:46:22;15.03;;;7.33;;
15712;SDS011;7957;51.608;6.916;2023-02-18T11:48:52;14.13;;;7.10;;
15712;SDS011;7957;51.608;6.916;2023-02-18T11:51:20;12.77;;;6.87;;
15712;SDS011;7957;51.608;6.916;2023-02-18T11:53:54;10.80;;;6.50;;
15712;SDS011;7957;51.608;6.916;2023-02-18T11:56:27;10.57;;;6.53;;
15712;SDS011;7957;51.608;6.916;2023-02-18T11:58:55;14.23;;;6.83;;
15712;SDS011;7957;51.608;6.916;2023-02-18T12:01:31;10.10;;;6.40;;
15712;SDS011;7957;51.608;6.916;2023-02-18T12:04:09;12.53;;;6.80;;
15712;SDS011;7957;51.608;6.916;2023-02-18T12:06:41;13.73;;;8.10;;
15712;SDS011;7957;51.608;6.916;2023-02-18T12:09:17;10.73;;;6.53;;
15712;SDS011;7957;51.608;6.916;2023-02-18T12:11:50;10.47;;;6.90;;
15712;SDS011;7957;51.608;6.916;2023-02-18T12:14:19;9.77;;;6.27;;
15712;SDS011;7957;51.608;6.916;2023-02-18T12:16:52;10.17;;;7.00;;
15712;SDS011;7957;51.608;6.916;2023-02-18T12:19:38;9.47;;;7.27;;
15712;SDS011;7957;51.608;6.916;2023-02-18T12:22:15;11.03;;;7.00;;
15712;SDS011;7957;51.608;6.916;2023-02-18T12:24:51;10.60;;;8.00;;
15712;SDS011;7957;51.608;6.916;2023-02-18T12:27:37;11.33;;;7.60;;
15712;SDS011;7957;51.608;6.916;2023-02-18T12:30:20;15.40;;;9.17;;
15712;SDS011;7957;51.608;6.916;2023-02-18T12:32:58;10.93;;;7.40;;
15712;SDS011;7957;51.608;6.916;2023-02-18T12:35:39;16.43;;;10.43;;
15712;SDS011;7957;51.608;6.916;2023-02-18T12:38:41;13.93;;;9.73;;
15712;SDS011;7957;51.608;6.916;2023-02-18T12:41:22;12.10;;;8.03;;
15712;SDS011;7957;51.608;6.916;2023-02-18T12:44:11;15.37;;;9.07;;
15712;SDS011;7957;51.608;6.916;2023-02-18T12:46:54;18.47;;;10.63;;
15712;SDS011;7957;51.608;6.916;2023-02-18T12:49:47;22.57;;;12.77;;
15712;SDS011;7957;51.608;6.916;2023-02-18T12:52:55;11.47;;;8.80;;
15712;SDS011;7957;51.608;6.916;2023-02-18T12:55:42;11.63;;;8.47;;
15712;SDS011;7957;51.608;6.916;2023-02-18T12:58:20;13.90;;;9.20;;
15712;SDS011;7957;51.608;6.916;2023-02-18T13:01:07;15.80;;;11.33;;
15712;SDS011;7957;51.608;6.916;2023-02-18T13:03:53;17.17;;;12.43;;
15712;SDS011;7957;51.608;6.916;2023-02-18T13:09:47;17.63;;;12.17;;
15712;SDS011;7957;51.608;6.916;2023-02-18T13:12:27;14.63;;;11.20;;
15712;SDS011;7957;51.608;6.916;2023-02-18T13:15:03;15.37;;;11.17;;
15712;SDS011;7957;51.608;6.916;2023-02-18T13:17:40;15.93;;;12.30;;
15712;SDS011;7957;51.608;6.916;2023-02-18T13:20:12;17.37;;;12.67;;
15712;SDS011;7957;51.608;6.916;2023-02-18T13:22:44;14.80;;;12.50;;
15712;SDS011;7957;51.608;6.916;2023-02-18T13:25:14;18.30;;;13.33;;
15712;SDS011;7957;51.608;6.916;2023-02-18T13:27:42;21.53;;;13.70;;
15712;SDS011;7957;51.608;6.916;2023-02-18T13:30:17;15.23;;;11.73;;
15712;SDS011;7957;51.608;6.916;2023-02-18T13:32:56;15.00;;;12.03;;
15712;SDS011;7957;51.608;6.916;2023-02-18T13:35:30;17.13;;;13.10;;
15712;SDS011;7957;51.608;6.916;2023-02-18T13:38:10;16.97;;;12.23;;
15712;SDS011;7957;51.608;6.916;2023-02-18T13:40:45;18.07;;;14.13;;
15712;SDS011;7957;51.608;6.916;2023-02-18T13:43:16;16.90;;;12.53;;
15712;SDS011;7957;51.608;6.916;2023-02-18T13:46:00;18.37;;;14.53;;
15712;SDS011;7957;51.608;6.916;2023-02-18T13:48:41;17.47;;;14.07;;
15712;SDS011;7957;51.608;6.916;2023-02-18T13:51:11;19.27;;;13.03;;
15712;SDS011;7957;51.608;6.916;2023-02-18T13:53:41;15.53;;;13.93;;
15712;SDS011;7957;51.608;6.916;2023-02-18T13:56:16;18.27;;;14.90;;
15712;SDS011;7957;51.608;6.916;2023-02-18T13:58:47;18.20;;;15.30;;
15712;SDS011;7957;51.608;6.916;2023-02-18T14:01:19;21.53;;;14.80;;
15712;SDS011;7957;51.608;6.916;2023-02-18T14:03:56;20.87;;;16.27;;
15712;SDS011;7957;51.608;6.916;2023-02-18T14:06:25;19.53;;;15.90;;
15712;SDS011;7957;51.608;6.916;2023-02-18T14:09:24;19.37;;;15.93;;
15712;SDS011;7957;51.608;6.916;2023-02-18T14:12:14;21.50;;;17.97;;
15712;SDS011;7957;51.608;6.916;2023-02-18T14:14:49;22.00;;;17.83;;
15712;SDS011;7957;51.608;6.916;2023-02-18T14:22:55;23.50;;;19.03;;
15712;SDS011;7957;51.608;6.916;2023-02-18T14:25:26;27.33;;;18.67;;
15712;SDS011;7957;51.608;6.916;2023-02-18T14:28:01;22.87;;;18.83;;
15712;SDS011;7957;51.608;6.916;2023-02-18T14:30:32;22.43;;;17.90;;
15712;SDS011;7957;51.608;6.916;2023-02-18T14:33:05;19.27;;;17.13;;
15712;SDS011;7957;51.608;6.916;2023-02-18T14:35:34;19.60;;;15.93;;
15712;SDS011;7957;51.608;6.916;2023-02-18T14:38:24;17.30;;;15.50;;
15712;SDS011;7957;51.608;6.916;2023-02-18T14:41:02;19.53;;;15.90;;
15712;SDS011;7957;51.608;6.916;2023-02-18T14:44:03;20.77;;;16.97;;
15712;SDS011;7957;51.608;6.916;2023-02-18T14:46:43;21.53;;;16.90;;
15712;SDS011;7957;51.608;6.916;2023-02-18T14:49:25;19.07;;;15.50;;
15712;SDS011;7957;51.608;6.916;2023-02-18T14:52:03;18.73;;;14.30;;
15712;SDS011;7957;51.608;6.916;2023-02-18T14:54:31;16.30;;;14.60;;
15712;SDS011;7957;51.608;6.916;2023-02-18T14:56:59;17.87;;;16.10;;
15712;SDS011;7957;51.608;6.916;2023-02-18T14:59:30;19.53;;;17.23;;
15712;SDS011;7957;51.608;6.916;2023-02-18T15:02:00;22.47;;;19.83;;
15712;SDS011;7957;51.608;6.916;2023-02-18T15:04:27;22.90;;;19.43;;
15712;SDS011;7957;51.608;6.916;2023-02-18T15:06:58;22.33;;;19.67;;
15712;SDS011;7957;51.608;6.916;2023-02-18T15:09:27;22.53;;;18.63;;
15712;SDS011;7957;51.608;6.916;2023-02-18T15:11:55;20.63;;;18.43;;
15712;SDS011;7957;51.608;6.916;2023-02-18T15:14:27;21.47;;;19.17;;
15712;SDS011;7957;51.608;6.916;2023-02-18T15:16:55;20.77;;;18.60;;
15712;SDS011;7957;51.608;6.916;2023-02-18T15:19:24;18.70;;;16.57;;
15712;SDS011;7957;51.608;6.916;2023-02-18T15:21:54;18.53;;;16.73;;
15712;SDS011;7957;51.608;6.916;2023-02-18T15:24:23;19.80;;;17.40;;
15712;SDS011;7957;51.608;6.916;2023-02-18T15:26:53;19.00;;;17.17;;
15712;SDS011;7957;51.608;6.916;2023-02-18T15:29:38;20.13;;;18.13;;